Terminal Aerodrome Forecast
Issued by NWS

Home | Current Version | Previous Version | Text Only | Print | Product List | Glossary On
Versions: 1 2 3 4 5 6 7 8 9 10 11 12 13 14 15 16 17
935
FTUS44 KBMX 261727
TAFTOI
TAF
KTOI 261727Z 2618/2718 19010KT P6SM BKN030
     FM270700 15002KT 4SM BR BKN007
     FM271000 00000KT 1SM BR OVC004=

USA.gov is the U.S. government's official web portal to all federal, state and local government web resources and services.